Time;durP1;ratioP1;P1;durP2;ratioP2;P2;SDS_P1;SDS_P2;PMS_P1;PMS_P2;Temp;Humidity;BMP_temperature;BMP_pressure;BME280_temperature;BME280_humidity;BME280_pressure;Samples;Min_cycle;Max_cycle;Signal;HPM_P1;HPM_P2
2023/06/08 00:01:52;;;;;;;11.60;5.90;;;;;;;;;;5100555;28;20467;-70
2023/06/08 00:04:18;;;;;;;12.67;6.90;;;;;;;;;;5109995;28;20455;-69
2023/06/08 00:06:44;;;;;;;8.07;5.93;;;;;;;;;;5104284;28;20508;-66
2023/06/08 00:09:11;;;;;;;11.93;6.23;;;;;;;;;;5098601;28;20479;-66
2023/06/08 00:11:37;;;;;;;10.67;5.57;;;;;;;;;;5107161;28;20545;-68
2023/06/08 00:14:05;;;;;;;11.43;6.37;;;;;;;;;;5103068;28;20535;-68
2023/06/08 00:16:32;;;;;;;12.20;6.20;;;;;;;;;;5100946;28;20479;-67
2023/06/08 00:19:00;;;;;;;13.30;7.50;;;;;;;;;;5100101;28;20442;-68
2023/06/08 00:21:29;;;;;;;12.00;6.87;;;;;;;;;;5100281;28;20475;-68
2023/06/08 00:23:55;;;;;;;10.50;6.27;;;;;;;;;;5101201;28;20496;-70
2023/06/08 00:26:22;;;;;;;9.43;5.93;;;;;;;;;;5099819;28;20554;-69
2023/06/08 00:28:48;;;;;;;12.00;6.50;;;;;;;;;;5104033;28;20535;-68
2023/06/08 00:31:16;;;;;;;9.80;6.40;;;;;;;;;;5106855;28;20466;-70
2023/06/08 00:33:42;;;;;;;11.37;7.47;;;;;;;;;;5101360;28;20514;-71
2023/06/08 00:36:09;;;;;;;20.73;7.80;;;;;;;;;;5101558;28;20479;-71
2023/06/08 00:38:35;;;;;;;8.00;6.87;;;;;;;;;;5100769;28;21074;-71
2023/06/08 00:41:02;;;;;;;12.40;6.63;;;;;;;;;;5099982;28;20546;-71
2023/06/08 00:43:28;;;;;;;17.77;6.10;;;;;;;;;;5100927;28;20494;-68
2023/06/08 00:45:56;;;;;;;14.83;7.70;;;;;;;;;;5057561;28;20505;-67
2023/06/08 00:48:24;;;;;;;12.40;7.30;;;;;;;;;;5055006;28;20531;-68
2023/06/08 00:50:51;;;;;;;9.70;5.53;;;;;;;;;;5060695;28;20569;-69
2023/06/08 00:53:17;;;;;;;10.43;6.80;;;;;;;;;;5065013;28;20860;-68
2023/06/08 00:55:44;;;;;;;9.80;6.57;;;;;;;;;;5059649;28;20476;-69
2023/06/08 00:58:13;;;;;;;19.63;6.10;;;;;;;;;;5067998;28;20476;-70
2023/06/08 01:00:39;;;;;;;12.77;6.43;;;;;;;;;;5059969;28;20514;-70
2023/06/08 01:03:06;;;;;;;12.83;6.60;;;;;;;;;;5060895;28;20476;-69
2023/06/08 01:05:33;;;;;;;13.43;6.87;;;;;;;;;;5059691;28;20504;-68
2023/06/08 01:08:04;;;;;;;13.50;7.70;;;;;;;;;;5060817;28;20476;-69
2023/06/08 01:10:35;;;;;;;10.53;6.60;;;;;;;;;;5059874;28;21063;-68
2023/06/08 01:13:07;;;;;;;10.23;6.03;;;;;;;;;;5060301;28;20515;-67
2023/06/08 01:15:36;;;;;;;12.93;7.17;;;;;;;;;;5058790;28;20491;-69
2023/06/08 01:18:04;;;;;;;9.53;6.93;;;;;;;;;;5060197;28;20512;-69
2023/06/08 01:20:37;;;;;;;8.27;5.67;;;;;;;;;;5058827;28;20525;-68
2023/06/08 01:23:09;;;;;;;13.03;7.07;;;;;;;;;;5062256;28;20540;-69
2023/06/08 01:25:37;;;;;;;12.17;6.80;;;;;;;;;;5066841;28;20503;-69
2023/06/08 01:28:12;;;;;;;8.50;6.23;;;;;;;;;;5059779;28;20539;-69
2023/06/08 01:30:38;;;;;;;15.03;6.73;;;;;;;;;;5065238;28;20509;-69
2023/06/08 01:33:04;;;;;;;14.70;7.00;;;;;;;;;;5063737;28;20847;-70
2023/06/08 01:35:31;;;;;;;10.30;6.97;;;;;;;;;;5062979;28;21222;-70
2023/06/08 01:38:02;;;;;;;18.20;7.20;;;;;;;;;;5070794;28;20487;-68
2023/06/08 01:40:30;;;;;;;11.87;7.40;;;;;;;;;;5067848;28;20473;-66
2023/06/08 01:43:00;;;;;;;11.93;6.73;;;;;;;;;;5073082;28;20479;-67
2023/06/08 01:45:29;;;;;;;13.43;7.47;;;;;;;;;;5096448;28;21070;-70
2023/06/08 01:47:57;;;;;;;11.73;7.20;;;;;;;;;;5103934;28;20487;-66
2023/06/08 01:50:25;;;;;;;12.63;6.73;;;;;;;;;;5102625;28;20530;-69
2023/06/08 01:52:51;;;;;;;10.53;7.17;;;;;;;;;;5101856;28;20522;-66
2023/06/08 01:55:22;;;;;;;7.13;5.97;;;;;;;;;;5101946;28;20524;-66
2023/06/08 01:57:48;;;;;;;12.37;6.63;;;;;;;;;;5103531;28;20458;-68
2023/06/08 02:00:17;;;;;;;20.30;7.53;;;;;;;;;;5103238;28;20529;-67
2023/06/08 02:02:44;;;;;;;11.33;7.00;;;;;;;;;;5104581;28;20451;-69
2023/06/08 02:05:11;;;;;;;10.63;6.93;;;;;;;;;;5103754;28;20450;-69
2023/06/08 02:07:38;;;;;;;14.60;7.07;;;;;;;;;;5103487;28;20494;-68
2023/06/08 02:10:05;;;;;;;11.07;6.37;;;;;;;;;;5107020;28;20542;-70
2023/06/08 02:12:31;;;;;;;14.50;6.73;;;;;;;;;;5102214;28;20535;-70
2023/06/08 02:14:58;;;;;;;17.50;6.47;;;;;;;;;;5103673;28;20832;-68
2023/06/08 02:17:27;;;;;;;11.83;6.70;;;;;;;;;;5106427;28;20482;-66
2023/06/08 02:19:53;;;;;;;10.77;7.17;;;;;;;;;;5105566;28;20635;-67
2023/06/08 02:22:20;;;;;;;13.80;7.37;;;;;;;;;;5102771;28;20557;-69
2023/06/08 02:24:46;;;;;;;12.47;5.77;;;;;;;;;;5102770;28;20476;-70
2023/06/08 02:27:13;;;;;;;11.47;6.70;;;;;;;;;;5103575;28;20494;-70
2023/06/08 02:29:42;;;;;;;8.40;6.57;;;;;;;;;;5102676;28;20474;-65
2023/06/08 02:32:09;;;;;;;13.07;7.60;;;;;;;;;;5100119;28;20497;-70
2023/06/08 02:34:37;;;;;;;15.67;7.50;;;;;;;;;;5104485;28;21030;-68
2023/06/08 02:37:04;;;;;;;12.70;7.03;;;;;;;;;;5101619;28;20917;-66
2023/06/08 02:39:30;;;;;;;20.73;8.60;;;;;;;;;;5103005;28;20460;-66
2023/06/08 02:41:57;;;;;;;10.70;6.23;;;;;;;;;;5100712;28;21140;-68
2023/06/08 02:44:23;;;;;;;16.07;7.43;;;;;;;;;;5102196;28;20481;-65
2023/06/08 02:46:50;;;;;;;13.77;8.17;;;;;;;;;;5101544;28;20851;-67
2023/06/08 02:49:16;;;;;;;15.03;7.30;;;;;;;;;;5102689;28;20439;-66
2023/06/08 02:51:44;;;;;;;15.47;7.90;;;;;;;;;;5102809;28;21013;-66
2023/06/08 02:54:10;;;;;;;13.23;7.17;;;;;;;;;;5097208;28;20451;-67
2023/06/08 02:56:36;;;;;;;11.93;8.70;;;;;;;;;;5105988;27;20535;-67
2023/06/08 02:59:03;;;;;;;12.70;7.70;;;;;;;;;;5103320;28;20514;-66
2023/06/08 03:01:30;;;;;;;15.13;7.50;;;;;;;;;;5101072;28;20879;-66
2023/06/08 03:03:57;;;;;;;16.87;8.17;;;;;;;;;;5106758;28;20473;-65
2023/06/08 03:06:26;;;;;;;19.00;8.57;;;;;;;;;;5102724;28;20545;-65
2023/06/08 03:08:54;;;;;;;15.13;8.10;;;;;;;;;;5099074;28;20926;-66
2023/06/08 03:11:21;;;;;;;17.40;8.27;;;;;;;;;;5101169;28;20467;-66
2023/06/08 03:13:48;;;;;;;13.90;7.60;;;;;;;;;;5102230;28;20470;-66
2023/06/08 03:16:14;;;;;;;13.70;8.50;;;;;;;;;;5103379;27;20524;-66
2023/06/08 03:18:41;;;;;;;16.33;8.30;;;;;;;;;;5103618;28;20523;-66
2023/06/08 03:21:08;;;;;;;13.80;7.77;;;;;;;;;;5105656;28;20470;-66
2023/06/08 03:23:35;;;;;;;11.60;7.37;;;;;;;;;;5101224;28;20455;-64
2023/06/08 03:26:03;;;;;;;21.57;9.40;;;;;;;;;;5101122;28;20499;-68
2023/06/08 03:28:29;;;;;;;14.30;8.20;;;;;;;;;;5101899;28;20459;-70
2023/06/08 03:30:56;;;;;;;17.00;8.10;;;;;;;;;;5100782;28;20562;-69
2023/06/08 03:33:23;;;;;;;16.47;8.40;;;;;;;;;;5104589;28;20918;-68
2023/06/08 03:35:50;;;;;;;15.20;8.03;;;;;;;;;;5102757;28;20478;-68
2023/06/08 03:38:16;;;;;;;13.40;8.20;;;;;;;;;;5101608;28;20496;-67
2023/06/08 03:40:43;;;;;;;17.70;9.20;;;;;;;;;;5102934;28;20562;-66
2023/06/08 03:43:11;;;;;;;15.87;8.60;;;;;;;;;;5104756;28;20544;-68
2023/06/08 03:45:37;;;;;;;14.50;8.77;;;;;;;;;;5100740;28;20541;-67
2023/06/08 03:48:03;;;;;;;15.50;8.63;;;;;;;;;;5101610;28;20482;-68
2023/06/08 03:50:30;;;;;;;18.73;9.20;;;;;;;;;;5108069;28;20466;-70
2023/06/08 03:52:57;;;;;;;15.17;8.63;;;;;;;;;;5105131;28;20893;-68
2023/06/08 03:55:23;;;;;;;12.97;8.70;;;;;;;;;;5099643;28;20471;-70
2023/06/08 03:57:50;;;;;;;15.33;8.23;;;;;;;;;;5103864;28;20505;-67
2023/06/08 04:00:20;;;;;;;15.03;9.80;;;;;;;;;;5105468;28;20458;-68
2023/06/08 04:02:46;;;;;;;13.47;9.00;;;;;;;;;;5103323;28;20482;-67
2023/06/08 04:05:13;;;;;;;17.07;8.83;;;;;;;;;;5100783;28;20454;-67
2023/06/08 04:07:40;;;;;;;13.63;7.77;;;;;;;;;;5100764;28;20458;-71
2023/06/08 04:10:07;;;;;;;15.87;8.67;;;;;;;;;;5100913;28;20538;-68
2023/06/08 04:12:33;;;;;;;14.40;9.00;;;;;;;;;;5102306;28;20582;-69
2023/06/08 04:15:01;;;;;;;16.57;8.77;;;;;;;;;;5108277;28;20557;-67
2023/06/08 04:17:29;;;;;;;17.20;9.57;;;;;;;;;;5099991;28;20512;-70
2023/06/08 04:19:55;;;;;;;16.20;8.80;;;;;;;;;;5099902;28;20509;-70
2023/06/08 04:22:22;;;;;;;14.50;9.50;;;;;;;;;;5104071;28;20471;-66
2023/06/08 04:24:48;;;;;;;14.13;9.53;;;;;;;;;;5100474;28;20486;-68
2023/06/08 04:27:16;;;;;;;17.50;9.60;;;;;;;;;;5101522;28;20600;-68
2023/06/08 04:29:42;;;;;;;18.57;11.20;;;;;;;;;;5101218;28;20451;-67
2023/06/08 04:32:09;;;;;;;17.30;9.20;;;;;;;;;;5103599;28;20572;-64
2023/06/08 04:34:36;;;;;;;19.63;8.77;;;;;;;;;;5096416;28;20490;-66
2023/06/08 04:37:03;;;;;;;11.23;7.83;;;;;;;;;;5096452;27;20840;-69
2023/06/08 04:39:29;;;;;;;13.50;8.17;;;;;;;;;;5100417;28;20455;-69
2023/06/08 04:41:57;;;;;;;15.80;8.63;;;;;;;;;;5099932;28;20494;-68
2023/06/08 04:44:24;;;;;;;18.40;9.13;;;;;;;;;;5102102;28;20486;-68
2023/06/08 04:46:50;;;;;;;15.67;8.80;;;;;;;;;;5099929;28;20474;-67
2023/06/08 04:49:17;;;;;;;13.90;9.33;;;;;;;;;;5100925;28;20441;-67
2023/06/08 04:51:46;;;;;;;17.50;8.97;;;;;;;;;;5105776;28;20479;-68
2023/06/08 04:54:13;;;;;;;15.87;9.27;;;;;;;;;;5103791;28;20542;-68
2023/06/08 04:56:41;;;;;;;16.20;9.10;;;;;;;;;;5099504;28;20482;-67
2023/06/08 04:59:07;;;;;;;16.27;10.00;;;;;;;;;;5102099;28;20513;-66
2023/06/08 05:01:34;;;;;;;15.90;9.80;;;;;;;;;;5099868;27;21078;-69
2023/06/08 05:04:01;;;;;;;16.00;9.33;;;;;;;;;;5102462;28;20474;-69
2023/06/08 05:06:28;;;;;;;25.70;12.27;;;;;;;;;;5095596;28;20827;-71
2023/06/08 05:08:55;;;;;;;19.10;10.10;;;;;;;;;;5106448;28;20522;-69
2023/06/08 05:11:22;;;;;;;24.60;9.70;;;;;;;;;;5104703;28;20550;-68
2023/06/08 05:13:48;;;;;;;22.87;10.67;;;;;;;;;;5104447;28;20510;-66
2023/06/08 05:16:15;;;;;;;18.87;9.67;;;;;;;;;;5107389;28;20505;-69
2023/06/08 05:18:41;;;;;;;19.47;10.90;;;;;;;;;;5105477;28;20489;-68
2023/06/08 05:21:08;;;;;;;18.70;10.67;;;;;;;;;;5104989;28;20562;-70
2023/06/08 05:23:34;;;;;;;15.60;9.27;;;;;;;;;;5103530;28;20465;-70
2023/06/08 05:26:02;;;;;;;19.60;10.30;;;;;;;;;;5102411;28;20500;-68
2023/06/08 05:28:28;;;;;;;24.10;12.00;;;;;;;;;;5103871;28;20501;-70
2023/06/08 05:30:54;;;;;;;24.60;11.63;;;;;;;;;;5103400;28;20514;-68
2023/06/08 05:33:21;;;;;;;17.27;10.87;;;;;;;;;;5104329;28;20955;-70
2023/06/08 05:35:47;;;;;;;15.90;9.47;;;;;;;;;;5104956;28;20542;-68
2023/06/08 05:38:14;;;;;;;16.80;10.13;;;;;;;;;;5111032;28;20513;-69
2023/06/08 05:40:40;;;;;;;19.90;11.60;;;;;;;;;;5103241;28;20486;-69
2023/06/08 05:43:08;;;;;;;22.23;10.57;;;;;;;;;;5096814;28;20510;-69
2023/06/08 05:45:34;;;;;;;20.60;11.37;;;;;;;;;;5102880;28;20911;-67
2023/06/08 05:48:00;;;;;;;21.37;10.57;;;;;;;;;;5103607;28;20455;-69
2023/06/08 05:50:27;;;;;;;20.43;10.70;;;;;;;;;;5103210;28;20534;-67
2023/06/08 05:52:53;;;;;;;20.00;11.30;;;;;;;;;;5102470;28;20553;-69
2023/06/08 05:55:20;;;;;;;21.20;11.70;;;;;;;;;;5100166;28;20685;-69
2023/06/08 05:57:46;;;;;;;20.40;11.93;;;;;;;;;;5106960;28;21170;-69
2023/06/08 06:00:15;;;;;;;19.63;10.70;;;;;;;;;;5106636;28;20507;-64
2023/06/08 06:02:41;;;;;;;17.50;10.90;;;;;;;;;;5105310;28;20467;-66
2023/06/08 06:05:08;;;;;;;19.80;11.20;;;;;;;;;;5103437;28;20494;-69
2023/06/08 06:07:35;;;;;;;26.43;10.73;;;;;;;;;;5103607;28;20463;-69
2023/06/08 06:10:01;;;;;;;19.47;10.20;;;;;;;;;;5104035;28;20467;-68
2023/06/08 06:12:27;;;;;;;15.33;8.90;;;;;;;;;;5102613;28;20586;-70
2023/06/08 06:14:55;;;;;;;15.93;10.37;;;;;;;;;;5104124;28;20447;-68
2023/06/08 06:17:23;;;;;;;18.23;10.30;;;;;;;;;;5107512;28;21046;-69
2023/06/08 06:19:49;;;;;;;16.83;10.00;;;;;;;;;;5105574;28;20674;-68
2023/06/08 06:22:16;;;;;;;15.93;9.10;;;;;;;;;;5102074;28;20546;-66
2023/06/08 06:24:43;;;;;;;22.30;10.90;;;;;;;;;;5110600;28;20516;-71
2023/06/08 06:27:09;;;;;;;19.53;9.90;;;;;;;;;;5103079;28;20509;-65
2023/06/08 06:29:36;;;;;;;18.00;9.67;;;;;;;;;;5108716;28;20455;-65
2023/06/08 06:32:02;;;;;;;17.63;8.90;;;;;;;;;;5112663;28;20479;-71
2023/06/08 06:34:30;;;;;;;18.80;9.43;;;;;;;;;;5105890;28;20439;-69
2023/06/08 06:36:57;;;;;;;18.33;9.60;;;;;;;;;;5103226;28;20479;-68
2023/06/08 06:39:24;;;;;;;20.70;10.37;;;;;;;;;;5101850;28;20459;-69
2023/06/08 06:41:50;;;;;;;19.43;9.70;;;;;;;;;;5101182;27;20489;-68
2023/06/08 06:44:17;;;;;;;14.40;9.20;;;;;;;;;;5110733;28;20553;-69
2023/06/08 06:46:43;;;;;;;13.10;8.60;;;;;;;;;;5103770;28;21053;-68
2023/06/08 06:49:10;;;;;;;17.10;10.20;;;;;;;;;;5108803;28;20555;-70
2023/06/08 06:51:39;;;;;;;19.23;9.90;;;;;;;;;;5097738;27;20778;-69
2023/06/08 06:54:06;;;;;;;18.90;10.73;;;;;;;;;;5104248;28;20466;-72
2023/06/08 06:56:32;;;;;;;23.70;10.37;;;;;;;;;;5101002;28;20487;-66
2023/06/08 06:58:58;;;;;;;14.73;9.80;;;;;;;;;;5098999;28;20483;-65
2023/06/08 07:01:26;;;;;;;15.33;9.70;;;;;;;;;;5103112;28;20502;-66
2023/06/08 07:03:52;;;;;;;17.80;9.57;;;;;;;;;;5101862;28;20460;-70
2023/06/08 07:06:23;;;;;;;16.40;9.10;;;;;;;;;;5110539;28;20479;-71
2023/06/08 07:08:51;;;;;;;13.27;10.30;;;;;;;;;;5100565;28;20455;-69
2023/06/08 07:11:17;;;;;;;16.50;9.30;;;;;;;;;;5100995;28;20490;-69
2023/06/08 07:13:43;;;;;;;14.33;9.73;;;;;;;;;;5101460;28;21252;-73
2023/06/08 07:16:10;;;;;;;15.27;9.10;;;;;;;;;;5102509;28;20558;-71
2023/06/08 07:18:37;;;;;;;15.97;11.27;;;;;;;;;;5100645;28;20518;-67
2023/06/08 07:21:03;;;;;;;16.40;9.70;;;;;;;;;;5099819;28;20967;-67
2023/06/08 07:23:30;;;;;;;18.33;10.13;;;;;;;;;;5101452;28;20462;-69
2023/06/08 07:25:57;;;;;;;21.97;10.57;;;;;;;;;;5106763;28;20467;-69
2023/06/08 07:28:24;;;;;;;14.53;8.87;;;;;;;;;;5104700;28;20531;-68
2023/06/08 07:30:50;;;;;;;12.97;9.47;;;;;;;;;;5101354;28;20624;-68
2023/06/08 07:33:18;;;;;;;16.90;9.23;;;;;;;;;;5097196;28;20886;-69
2023/06/08 07:35:44;;;;;;;17.70;9.07;;;;;;;;;;5100715;28;20470;-65
2023/06/08 07:38:11;;;;;;;19.27;10.03;;;;;;;;;;5103405;28;20482;-65
2023/06/08 07:40:37;;;;;;;17.93;11.07;;;;;;;;;;5101545;28;20479;-68
2023/06/08 07:43:05;;;;;;;17.03;11.30;;;;;;;;;;5099847;28;20514;-66
2023/06/08 07:45:31;;;;;;;16.47;11.17;;;;;;;;;;5101486;28;20465;-66
2023/06/08 07:47:57;;;;;;;16.80;11.00;;;;;;;;;;5099632;28;20463;-67
2023/06/08 07:50:24;;;;;;;18.90;10.30;;;;;;;;;;5105818;28;20474;-68
2023/06/08 07:52:50;;;;;;;15.93;10.63;;;;;;;;;;5098687;28;20546;-68
2023/06/08 07:55:17;;;;;;;16.90;10.13;;;;;;;;;;5095974;28;21201;-68
2023/06/08 07:57:44;;;;;;;18.40;10.00;;;;;;;;;;5098183;28;20603;-68
2023/06/08 08:00:13;;;;;;;20.57;11.53;;;;;;;;;;5100452;28;20458;-69
2023/06/08 08:02:39;;;;;;;19.77;12.30;;;;;;;;;;5099931;28;20967;-69
2023/06/08 08:05:07;;;;;;;14.87;10.40;;;;;;;;;;5101175;28;21008;-68
2023/06/08 08:07:34;;;;;;;22.30;11.07;;;;;;;;;;5105808;28;20477;-68
2023/06/08 08:10:00;;;;;;;23.07;10.43;;;;;;;;;;5099693;28;21142;-67
2023/06/08 08:12:27;;;;;;;17.13;10.33;;;;;;;;;;5100264;28;20570;-69
2023/06/08 08:14:53;;;;;;;18.37;11.23;;;;;;;;;;5101866;28;20537;-69
2023/06/08 08:17:21;;;;;;;21.73;10.73;;;;;;;;;;5098483;28;20543;-68
2023/06/08 08:19:47;;;;;;;16.63;10.70;;;;;;;;;;5097333;28;20962;-69
2023/06/08 08:22:13;;;;;;;16.93;10.33;;;;;;;;;;5098496;28;20483;-70
2023/06/08 08:24:40;;;;;;;17.83;10.77;;;;;;;;;;5099985;28;20458;-69
2023/06/08 08:27:06;;;;;;;17.30;11.47;;;;;;;;;;5104906;28;20644;-67
2023/06/08 08:29:33;;;;;;;15.47;10.80;;;;;;;;;;5099562;28;20478;-65
2023/06/08 08:31:59;;;;;;;14.70;9.80;;;;;;;;;;5099579;28;20507;-64
2023/06/08 08:34:27;;;;;;;15.97;10.10;;;;;;;;;;5103759;28;20451;-66
2023/06/08 08:36:53;;;;;;;15.73;10.43;;;;;;;;;;5098305;28;20497;-66
2023/06/08 08:39:20;;;;;;;16.50;12.67;;;;;;;;;;5099542;28;20760;-67
2023/06/08 08:41:47;;;;;;;17.03;11.40;;;;;;;;;;5107824;28;20475;-66
2023/06/08 08:44:15;;;;;;;19.63;11.63;;;;;;;;;;5110992;28;20505;-65
2023/06/08 08:46:42;;;;;;;18.67;10.70;;;;;;;;;;5106083;28;20542;-64
2023/06/08 08:49:13;;;;;;;19.20;11.87;;;;;;;;;;5104017;28;20526;-67
2023/06/08 08:51:43;;;;;;;16.97;11.20;;;;;;;;;;5103859;28;20480;-65
2023/06/08 08:54:12;;;;;;;15.33;10.53;;;;;;;;;;5110295;28;20458;-66
2023/06/08 08:56:38;;;;;;;21.40;11.63;;;;;;;;;;5103817;28;20475;-64
2023/06/08 08:59:05;;;;;;;20.80;11.53;;;;;;;;;;5103611;28;20573;-65
2023/06/08 09:01:32;;;;;;;23.17;12.00;;;;;;;;;;5104267;28;20526;-66
2023/06/08 09:04:01;;;;;;;17.70;10.40;;;;;;;;;;5107720;28;20451;-66
2023/06/08 09:06:28;;;;;;;15.93;10.63;;;;;;;;;;5103429;28;20509;-66
2023/06/08 09:08:56;;;;;;;18.93;11.07;;;;;;;;;;5103238;28;20519;-65
2023/06/08 09:11:23;;;;;;;26.53;13.30;;;;;;;;;;5102661;27;20542;-66
2023/06/08 09:14:05;;;;;;;16.27;11.20;;;;;;;;;;5099002;28;20454;-67
2023/06/08 09:16:40;;;;;;;18.53;10.97;;;;;;;;;;5103152;28;20481;-66
2023/06/08 09:19:06;;;;;;;17.67;12.47;;;;;;;;;;5102330;28;20494;-68
2023/06/08 09:21:34;;;;;;;23.93;13.00;;;;;;;;;;5106908;28;20475;-66
2023/06/08 09:24:06;;;;;;;18.57;11.47;;;;;;;;;;5093622;28;20656;-65
2023/06/08 09:26:33;;;;;;;17.77;12.07;;;;;;;;;;5096751;28;20489;-66
2023/06/08 09:29:01;;;;;;;18.37;11.80;;;;;;;;;;5102877;28;20482;-67
2023/06/08 09:31:29;;;;;;;17.87;11.90;;;;;;;;;;5102223;28;20508;-65
2023/06/08 09:34:04;;;;;;;20.13;11.80;;;;;;;;;;5102244;28;20449;-66
2023/06/08 09:36:31;;;;;;;15.13;11.60;;;;;;;;;;5102318;28;20517;-66
2023/06/08 09:38:57;;;;;;;17.60;11.00;;;;;;;;;;5102891;28;20526;-66
2023/06/08 09:41:25;;;;;;;16.50;10.20;;;;;;;;;;5100260;28;20479;-67
2023/06/08 09:43:51;;;;;;;22.30;12.37;;;;;;;;;;5103089;28;20493;-65
2023/06/08 09:46:33;;;;;;;14.13;11.00;;;;;;;;;;5103183;28;20565;-66
2023/06/08 09:48:59;;;;;;;18.13;11.13;;;;;;;;;;5104961;28;20537;-69
2023/06/08 09:51:26;;;;;;;17.80;12.03;;;;;;;;;;5101782;28;20474;-66
2023/06/08 09:53:54;;;;;;;16.50;12.00;;;;;;;;;;5103975;28;20918;-67
2023/06/08 09:56:23;;;;;;;14.57;9.97;;;;;;;;;;5101680;28;20474;-67
2023/06/08 09:58:51;;;;;;;12.53;10.40;;;;;;;;;;5102015;28;20517;-67
2023/06/08 10:01:20;;;;;;;16.80;11.20;;;;;;;;;;5101275;28;20479;-66
2023/06/08 10:03:49;;;;;;;18.57;12.60;;;;;;;;;;5101380;28;20455;-68
2023/06/08 10:06:16;;;;;;;16.87;11.37;;;;;;;;;;5101064;28;20560;-63
2023/06/08 10:08:44;;;;;;;16.83;11.03;;;;;;;;;;5101319;28;20458;-68
2023/06/08 10:11:12;;;;;;;13.30;10.23;;;;;;;;;;5100230;28;20995;-66
2023/06/08 10:13:38;;;;;;;10.87;9.83;;;;;;;;;;5102909;28;20515;-66
2023/06/08 10:16:06;;;;;;;15.93;12.57;;;;;;;;;;5102542;28;20475;-65
2023/06/08 10:18:34;;;;;;;13.70;10.30;;;;;;;;;;5102415;28;20999;-67
2023/06/08 10:21:01;;;;;;;15.70;11.90;;;;;;;;;;5102513;28;21045;-69
2023/06/08 10:23:28;;;;;;;17.67;11.17;;;;;;;;;;5101767;28;20458;-68
2023/06/08 10:25:55;;;;;;;13.67;10.03;;;;;;;;;;5097474;28;20474;-70
2023/06/08 10:28:22;;;;;;;16.03;11.60;;;;;;;;;;5101098;28;20470;-67
2023/06/08 10:30:48;;;;;;;20.87;11.57;;;;;;;;;;5100757;28;20471;-68
2023/06/08 10:33:18;;;;;;;16.70;11.67;;;;;;;;;;5101788;28;21027;-68
2023/06/08 10:36:02;;;;;;;16.77;11.37;;;;;;;;;;5100960;28;20561;-67
2023/06/08 10:38:29;;;;;;;15.80;12.20;;;;;;;;;;5101199;28;20486;-65
2023/06/08 10:40:56;;;;;;;20.77;12.67;;;;;;;;;;5099103;28;20782;-63
2023/06/08 10:43:23;;;;;;;20.60;12.10;;;;;;;;;;5099636;28;20474;-70
2023/06/08 10:45:51;;;;;;;17.00;10.03;;;;;;;;;;5102389;28;20482;-67
2023/06/08 10:48:19;;;;;;;12.97;11.40;;;;;;;;;;5101874;28;20554;-67
2023/06/08 10:50:46;;;;;;;13.53;10.60;;;;;;;;;;5098594;28;20503;-65
2023/06/08 10:53:13;;;;;;;15.83;12.60;;;;;;;;;;5100871;28;20523;-68
2023/06/08 10:55:40;;;;;;;15.17;11.00;;;;;;;;;;5098424;28;20470;-69
2023/06/08 10:58:07;;;;;;;14.83;11.67;;;;;;;;;;5105867;28;20491;-67
2023/06/08 11:00:44;;;;;;;16.87;11.30;;;;;;;;;;5099971;28;20521;-68
2023/06/08 11:03:25;;;;;;;16.90;11.70;;;;;;;;;;5098629;28;20458;-68
2023/06/08 11:05:53;;;;;;;15.80;12.00;;;;;;;;;;5096908;28;20470;-66
2023/06/08 11:08:20;;;;;;;13.70;11.20;;;;;;;;;;5100925;28;20451;-66
2023/06/08 11:10:52;;;;;;;15.23;11.73;;;;;;;;;;5100344;28;20479;-69
2023/06/08 11:13:19;;;;;;;15.60;12.57;;;;;;;;;;5101081;28;20959;-68
2023/06/08 11:15:46;;;;;;;19.33;12.50;;;;;;;;;;5109033;27;20471;-68
2023/06/08 11:18:13;;;;;;;13.43;11.80;;;;;;;;;;5100927;28;20491;-65
2023/06/08 11:20:40;;;;;;;16.00;11.90;;;;;;;;;;5100754;27;20562;-67
2023/06/08 11:23:09;;;;;;;17.43;11.77;;;;;;;;;;5101883;28;20490;-70
2023/06/08 11:25:35;;;;;;;15.37;11.63;;;;;;;;;;5100100;28;20586;-69
2023/06/08 11:28:02;;;;;;;15.57;11.47;;;;;;;;;;5100727;28;20451;-73
2023/06/08 11:30:31;;;;;;;13.33;9.80;;;;;;;;;;5100385;28;20438;-67
2023/06/08 11:32:57;;;;;;;14.80;10.20;;;;;;;;;;5100857;28;20458;-67
2023/06/08 11:35:24;;;;;;;14.37;10.63;;;;;;;;;;5100991;28;20451;-70
2023/06/08 11:37:50;;;;;;;14.30;11.10;;;;;;;;;;5097886;28;20471;-67
2023/06/08 11:40:18;;;;;;;14.10;10.40;;;;;;;;;;5102137;28;20493;-67
2023/06/08 11:42:45;;;;;;;14.13;10.77;;;;;;;;;;5100830;28;20641;-70
2023/06/08 11:45:12;;;;;;;13.97;9.07;;;;;;;;;;5099101;28;20483;-66
2023/06/08 11:47:40;;;;;;;13.57;9.90;;;;;;;;;;5099315;28;20460;-67
2023/06/08 11:50:07;;;;;;;13.77;10.20;;;;;;;;;;5108686;28;20525;-68
2023/06/08 11:52:35;;;;;;;11.73;9.87;;;;;;;;;;5098399;27;20533;-65
2023/06/08 11:55:03;;;;;;;14.40;10.53;;;;;;;;;;5095973;28;20468;-66
2023/06/08 11:57:41;;;;;;;15.87;10.70;;;;;;;;;;5097891;28;20489;-69
2023/06/08 12:00:09;;;;;;;14.07;10.10;;;;;;;;;;5099090;27;20443;-69
2023/06/08 12:02:36;;;;;;;14.63;11.60;;;;;;;;;;5098206;28;20455;-66
2023/06/08 12:05:02;;;;;;;14.00;10.03;;;;;;;;;;5095993;28;20469;-69
2023/06/08 12:07:29;;;;;;;11.10;8.60;;;;;;;;;;5097802;28;20503;-68
2023/06/08 12:09:55;;;;;;;12.80;10.20;;;;;;;;;;5097421;28;20546;-69
2023/06/08 12:12:27;;;;;;;13.27;9.43;;;;;;;;;;5098336;28;20486;-67
2023/06/08 12:14:55;;;;;;;12.13;9.33;;;;;;;;;;5098131;28;20470;-68
2023/06/08 12:17:25;;;;;;;12.40;8.80;;;;;;;;;;5097588;27;20483;-67
2023/06/08 12:19:51;;;;;;;14.07;8.00;;;;;;;;;;5097298;28;20542;-70
2023/06/08 12:22:18;;;;;;;12.50;9.10;;;;;;;;;;5098374;28;20569;-67
2023/06/08 12:24:44;;;;;;;11.27;8.00;;;;;;;;;;5097931;28;20514;-67
2023/06/08 12:27:11;;;;;;;11.37;8.83;;;;;;;;;;5097283;28;20558;-66
2023/06/08 12:29:37;;;;;;;13.30;9.03;;;;;;;;;;5097649;28;20497;-67
2023/06/08 12:32:06;;;;;;;13.07;8.70;;;;;;;;;;5097886;28;20495;-66
2023/06/08 12:34:33;;;;;;;11.70;9.00;;;;;;;;;;5096510;28;20455;-64
2023/06/08 12:36:59;;;;;;;12.33;9.30;;;;;;;;;;5097494;28;20513;-66
2023/06/08 12:39:26;;;;;;;7.87;7.07;;;;;;;;;;5094624;28;20482;-68
2023/06/08 12:41:52;;;;;;;13.77;8.40;;;;;;;;;;5096409;28;20585;-68
2023/06/08 12:44:19;;;;;;;10.83;8.30;;;;;;;;;;5096136;28;20566;-67
2023/06/08 12:46:45;;;;;;;9.23;8.33;;;;;;;;;;5095197;28;20486;-68
2023/06/08 12:49:13;;;;;;;11.43;7.80;;;;;;;;;;5098080;28;20454;-67
2023/06/08 12:51:40;;;;;;;10.30;9.03;;;;;;;;;;5096110;28;20483;-66
2023/06/08 12:54:06;;;;;;;13.07;9.00;;;;;;;;;;5097655;28;20462;-68
2023/06/08 12:56:32;;;;;;;12.50;8.70;;;;;;;;;;5102595;28;20546;-67
2023/06/08 12:58:59;;;;;;;11.50;8.00;;;;;;;;;;5101342;28;20482;-66
2023/06/08 13:01:25;;;;;;;10.70;8.10;;;;;;;;;;5097983;28;20704;-66
2023/06/08 13:03:52;;;;;;;16.90;9.20;;;;;;;;;;5097423;28;20478;-67
2023/06/08 13:06:20;;;;;;;10.47;8.00;;;;;;;;;;5097859;28;20911;-65
2023/06/08 13:08:46;;;;;;;9.03;7.90;;;;;;;;;;5099799;28;20446;-66
2023/06/08 13:11:13;;;;;;;13.37;8.27;;;;;;;;;;5099330;28;20506;-68
2023/06/08 13:13:39;;;;;;;12.47;8.60;;;;;;;;;;5100644;28;20522;-68
2023/06/08 13:16:06;;;;;;;11.47;9.50;;;;;;;;;;5100948;28;20471;-67
2023/06/08 13:18:33;;;;;;;8.40;7.70;;;;;;;;;;5100180;28;20530;-67
2023/06/08 13:21:00;;;;;;;8.93;7.33;;;;;;;;;;5098204;28;20937;-67
2023/06/08 13:23:30;;;;;;;8.77;7.13;;;;;;;;;;5098528;28;20483;-68
2023/06/08 13:25:56;;;;;;;11.67;7.50;;;;;;;;;;5099142;28;20483;-67
2023/06/08 13:28:22;;;;;;;9.70;8.17;;;;;;;;;;5101874;28;20461;-67
2023/06/08 13:30:49;;;;;;;8.90;7.37;;;;;;;;;;5099668;28;20543;-68
2023/06/08 13:33:15;;;;;;;9.47;7.80;;;;;;;;;;5101734;28;20453;-68
2023/06/08 13:35:43;;;;;;;9.93;7.67;;;;;;;;;;5101115;28;20490;-67
2023/06/08 13:38:11;;;;;;;7.60;6.23;;;;;;;;;;5103145;28;20450;-68
2023/06/08 13:40:39;;;;;;;6.77;6.10;;;;;;;;;;5102267;28;20479;-65
2023/06/08 13:43:09;;;;;;;7.60;6.90;;;;;;;;;;5100914;28;20455;-68
2023/06/08 13:45:36;;;;;;;9.00;7.03;;;;;;;;;;5109958;28;20471;-67
2023/06/08 13:48:02;;;;;;;9.40;6.73;;;;;;;;;;5100892;28;20463;-67
2023/06/08 13:50:29;;;;;;;11.00;6.97;;;;;;;;;;5102722;28;20538;-68
2023/06/08 13:52:56;;;;;;;7.53;6.00;;;;;;;;;;5102921;28;20447;-68
2023/06/08 13:55:23;;;;;;;7.20;5.70;;;;;;;;;;5101235;28;20459;-68
2023/06/08 13:57:51;;;;;;;12.07;6.17;;;;;;;;;;5101228;28;20458;-68
2023/06/08 14:00:18;;;;;;;7.27;6.57;;;;;;;;;;5100558;28;20580;-64
2023/06/08 14:02:47;;;;;;;8.67;6.47;;;;;;;;;;5105687;28;20514;-64
2023/06/08 14:05:17;;;;;;;6.57;5.87;;;;;;;;;;5102469;28;20776;-64
2023/06/08 14:07:43;;;;;;;8.73;5.97;;;;;;;;;;5100533;28;20540;-64
2023/06/08 14:10:10;;;;;;;10.00;6.40;;;;;;;;;;5101325;28;20478;-64
2023/06/08 14:12:37;;;;;;;10.97;6.73;;;;;;;;;;5100198;28;20481;-64
2023/06/08 14:15:05;;;;;;;9.87;7.80;;;;;;;;;;5101903;28;20471;-64
2023/06/08 14:17:34;;;;;;;7.70;6.90;;;;;;;;;;5101174;28;20482;-64
2023/06/08 14:20:00;;;;;;;6.93;6.17;;;;;;;;;;5101887;28;20540;-65
2023/06/08 14:22:26;;;;;;;11.83;6.23;;;;;;;;;;5098103;28;21009;-64
2023/06/08 14:24:53;;;;;;;8.60;6.67;;;;;;;;;;5100090;28;20486;-65
2023/06/08 14:27:19;;;;;;;7.43;6.73;;;;;;;;;;5098385;28;20562;-63